sensor_id;sensor_type;location;lat;lon;timestamp;P1;durP1;ratioP1;P2;durP2;ratioP2
80119;SDS011;69425;55.040;82.918;2023-09-07T00:03:14;2.67;;;1.30;;
80119;SDS011;69425;55.040;82.918;2023-09-07T00:08:15;3.30;;;1.80;;
80119;SDS011;69425;55.040;82.918;2023-09-07T00:13:16;3.60;;;1.80;;
80119;SDS011;69425;55.040;82.918;2023-09-07T00:18:19;5.93;;;2.92;;
80119;SDS011;69425;55.040;82.918;2023-09-07T00:23:20;5.53;;;2.28;;
80119;SDS011;69425;55.040;82.918;2023-09-07T00:33:24;4.18;;;2.10;;
80119;SDS011;69425;55.040;82.918;2023-09-07T00:38:25;3.90;;;1.60;;
80119;SDS011;69425;55.040;82.918;2023-09-07T00:43:26;4.55;;;1.70;;
80119;SDS011;69425;55.040;82.918;2023-09-07T00:48:29;3.33;;;1.40;;
80119;SDS011;69425;55.040;82.918;2023-09-07T00:53:30;3.47;;;1.60;;
80119;SDS011;69425;55.040;82.918;2023-09-07T00:58:31;2.85;;;1.55;;
80119;SDS011;69425;55.040;82.918;2023-09-07T01:03:34;3.53;;;1.40;;
80119;SDS011;69425;55.040;82.918;2023-09-07T01:08:36;2.67;;;1.13;;
80119;SDS011;69425;55.040;82.918;2023-09-07T01:13:42;6.13;;;1.13;;
80119;SDS011;69425;55.040;82.918;2023-09-07T01:23:47;2.33;;;1.00;;
80119;SDS011;69425;55.040;82.918;2023-09-07T01:28:48;2.40;;;1.38;;
80119;SDS011;69425;55.040;82.918;2023-09-07T01:33:50;5.57;;;1.65;;
80119;SDS011;69425;55.040;82.918;2023-09-07T01:38:52;8.77;;;2.08;;
80119;SDS011;69425;55.040;82.918;2023-09-07T01:43:53;9.35;;;2.53;;
80119;SDS011;69425;55.040;82.918;2023-09-07T01:48:55;5.55;;;2.05;;
80119;SDS011;69425;55.040;82.918;2023-09-07T01:53:57;8.77;;;2.15;;
80119;SDS011;69425;55.040;82.918;2023-09-07T01:58:59;3.50;;;2.13;;
80119;SDS011;69425;55.040;82.918;2023-09-07T02:04:00;6.53;;;1.95;;
80119;SDS011;69425;55.040;82.918;2023-09-07T02:09:02;4.05;;;1.92;;
80119;SDS011;69425;55.040;82.918;2023-09-07T02:14:04;5.65;;;2.30;;
80119;SDS011;69425;55.040;82.918;2023-09-07T02:19:05;7.55;;;3.05;;
80119;SDS011;69425;55.040;82.918;2023-09-07T02:29:09;9.77;;;3.00;;
80119;SDS011;69425;55.040;82.918;2023-09-07T02:34:10;7.25;;;3.05;;
80119;SDS011;69425;55.040;82.918;2023-09-07T02:39:13;9.68;;;2.38;;
80119;SDS011;69425;55.040;82.918;2023-09-07T02:44:14;9.20;;;2.92;;
80119;SDS011;69425;55.040;82.918;2023-09-07T02:49:15;8.02;;;3.28;;
80119;SDS011;69425;55.040;82.918;2023-09-07T02:54:18;7.68;;;3.20;;
80119;SDS011;69425;55.040;82.918;2023-09-07T02:59:19;12.48;;;3.15;;
80119;SDS011;69425;55.040;82.918;2023-09-07T03:04:20;12.65;;;3.17;;
80119;SDS011;69425;55.040;82.918;2023-09-07T03:09:25;8.00;;;2.90;;
80119;SDS011;69425;55.040;82.918;2023-09-07T03:14:26;8.57;;;2.78;;
80119;SDS011;69425;55.040;82.918;2023-09-07T03:19:28;5.05;;;2.58;;
80119;SDS011;69425;55.040;82.918;2023-09-07T03:29:31;6.10;;;1.98;;
80119;SDS011;69425;55.040;82.918;2023-09-07T03:39:35;6.97;;;2.15;;
80119;SDS011;69425;55.040;82.918;2023-09-07T03:44:36;7.47;;;2.30;;
80119;SDS011;69425;55.040;82.918;2023-09-07T03:54:39;3.90;;;1.52;;
80119;SDS011;69425;55.040;82.918;2023-09-07T03:59:41;5.22;;;1.77;;
80119;SDS011;69425;55.040;82.918;2023-09-07T04:04:42;6.05;;;1.65;;
80119;SDS011;69425;55.040;82.918;2023-09-07T04:09:45;7.25;;;1.95;;
80119;SDS011;69425;55.040;82.918;2023-09-07T04:14:46;5.68;;;1.67;;
80119;SDS011;69425;55.040;82.918;2023-09-07T04:19:47;5.72;;;1.92;;
80119;SDS011;69425;55.040;82.918;2023-09-07T04:29:51;5.25;;;1.35;;
80119;SDS011;69425;55.040;82.918;2023-09-07T04:34:53;9.13;;;1.60;;
80119;SDS011;69425;55.040;82.918;2023-09-07T04:39:56;2.47;;;1.45;;
80119;SDS011;69425;55.040;82.918;2023-09-07T04:44:57;6.38;;;2.28;;
80119;SDS011;69425;55.040;82.918;2023-09-07T04:49:59;3.13;;;1.33;;
80119;SDS011;69425;55.040;82.918;2023-09-07T04:55:02;3.75;;;1.38;;
80119;SDS011;69425;55.040;82.918;2023-09-07T05:00:06;3.15;;;1.20;;
80119;SDS011;69425;55.040;82.918;2023-09-07T05:05:08;2.35;;;1.00;;
80119;SDS011;69425;55.040;82.918;2023-09-07T05:10:11;2.38;;;1.08;;
80119;SDS011;69425;55.040;82.918;2023-09-07T05:15:12;5.50;;;1.48;;
80119;SDS011;69425;55.040;82.918;2023-09-07T05:25:15;1.88;;;1.10;;
80119;SDS011;69425;55.040;82.918;2023-09-07T05:30:17;2.97;;;0.93;;
80119;SDS011;69425;55.040;82.918;2023-09-07T05:35:18;4.07;;;1.08;;
80119;SDS011;69425;55.040;82.918;2023-09-07T05:45:21;3.63;;;1.08;;
80119;SDS011;69425;55.040;82.918;2023-09-07T05:55:25;2.70;;;0.90;;
80119;SDS011;69425;55.040;82.918;2023-09-07T06:00:26;3.25;;;1.00;;
80119;SDS011;69425;55.040;82.918;2023-09-07T06:05:28;2.78;;;1.15;;
80119;SDS011;69425;55.040;82.918;2023-09-07T06:10:30;1.13;;;0.82;;
80119;SDS011;69425;55.040;82.918;2023-09-07T06:15:32;5.78;;;1.00;;
80119;SDS011;69425;55.040;82.918;2023-09-07T06:25:35;1.40;;;0.68;;
80119;SDS011;69425;55.040;82.918;2023-09-07T06:30:36;2.20;;;0.77;;
80119;SDS011;69425;55.040;82.918;2023-09-07T06:40:40;1.70;;;1.08;;
80119;SDS011;69425;55.040;82.918;2023-09-07T06:45:41;3.15;;;1.10;;
80119;SDS011;69425;55.040;82.918;2023-09-07T06:50:42;1.55;;;1.00;;
80119;SDS011;69425;55.040;82.918;2023-09-07T07:00:46;2.28;;;0.82;;
80119;SDS011;69425;55.040;82.918;2023-09-07T07:10:49;2.65;;;1.00;;
80119;SDS011;69425;55.040;82.918;2023-09-07T07:15:51;2.20;;;0.65;;
80119;SDS011;69425;55.040;82.918;2023-09-07T07:20:52;2.25;;;1.30;;
80119;SDS011;69425;55.040;82.918;2023-09-07T07:30:55;1.77;;;1.02;;
80119;SDS011;69425;55.040;82.918;2023-09-07T07:40:59;1.77;;;0.90;;
80119;SDS011;69425;55.040;82.918;2023-09-07T07:46:00;1.95;;;1.38;;
80119;SDS011;69425;55.040;82.918;2023-09-07T07:56:04;1.73;;;1.10;;
80119;SDS011;69425;55.040;82.918;2023-09-07T08:01:12;2.28;;;0.95;;
80119;SDS011;69425;55.040;82.918;2023-09-07T08:06:14;1.95;;;0.95;;
80119;SDS011;69425;55.040;82.918;2023-09-07T08:11:17;1.63;;;0.90;;
80119;SDS011;69425;55.040;82.918;2023-09-07T08:16:18;3.38;;;1.45;;
80119;SDS011;69425;55.040;82.918;2023-09-07T08:26:22;2.13;;;0.80;;
80119;SDS011;69425;55.040;82.918;2023-09-07T08:31:23;3.20;;;1.10;;
80119;SDS011;69425;55.040;82.918;2023-09-07T08:36:24;1.80;;;0.82;;
80119;SDS011;69425;55.040;82.918;2023-09-07T08:41:27;2.35;;;0.73;;
80119;SDS011;69425;55.040;82.918;2023-09-07T08:46:29;3.60;;;1.02;;
80119;SDS011;69425;55.040;82.918;2023-09-07T08:51:30;1.25;;;0.70;;
80119;SDS011;69425;55.040;82.918;2023-09-07T08:56:33;1.17;;;0.82;;
80119;SDS011;69425;55.040;82.918;2023-09-07T09:01:34;4.45;;;0.88;;
80119;SDS011;69425;55.040;82.918;2023-09-07T09:11:38;1.65;;;0.80;;
80119;SDS011;69425;55.040;82.918;2023-09-07T09:16:39;2.30;;;0.82;;
80119;SDS011;69425;55.040;82.918;2023-09-07T09:26:42;2.90;;;1.10;;
80119;SDS011;69425;55.040;82.918;2023-09-07T09:31:44;2.40;;;1.08;;
80119;SDS011;69425;55.040;82.918;2023-09-07T09:36:45;4.40;;;1.30;;
80119;SDS011;69425;55.040;82.918;2023-09-07T09:41:48;2.95;;;1.15;;
80119;SDS011;69425;55.040;82.918;2023-09-07T09:46:49;2.17;;;1.13;;
80119;SDS011;69425;55.040;82.918;2023-09-07T09:51:52;3.20;;;1.30;;
80119;SDS011;69425;55.040;82.918;2023-09-07T09:56:55;3.15;;;1.02;;
80119;SDS011;69425;55.040;82.918;2023-09-07T10:01:56;6.18;;;1.80;;
80119;SDS011;69425;55.040;82.918;2023-09-07T10:06:58;4.03;;;1.30;;
80119;SDS011;69425;55.040;82.918;2023-09-07T10:12:01;4.50;;;1.27;;
80119;SDS011;69425;55.040;82.918;2023-09-07T10:17:03;4.50;;;1.38;;
80119;SDS011;69425;55.040;82.918;2023-09-07T10:22:05;2.38;;;0.95;;
80119;SDS011;69425;55.040;82.918;2023-09-07T10:27:08;1.48;;;1.00;;
80119;SDS011;69425;55.040;82.918;2023-09-07T10:32:09;3.00;;;1.20;;
80119;SDS011;69425;55.040;82.918;2023-09-07T10:37:11;4.32;;;1.17;;
80119;SDS011;69425;55.040;82.918;2023-09-07T10:42:21;3.47;;;1.30;;
80119;SDS011;69425;55.040;82.918;2023-09-07T10:47:22;1.90;;;1.08;;
80119;SDS011;69425;55.040;82.918;2023-09-07T10:52:24;4.43;;;1.60;;
80119;SDS011;69425;55.040;82.918;2023-09-07T10:57:26;5.35;;;1.25;;
80119;SDS011;69425;55.040;82.918;2023-09-07T11:02:27;4.82;;;1.15;;
80119;SDS011;69425;55.040;82.918;2023-09-07T11:07:29;6.05;;;1.30;;
80119;SDS011;69425;55.040;82.918;2023-09-07T11:12:35;3.25;;;1.23;;
80119;SDS011;69425;55.040;82.918;2023-09-07T11:17:37;2.92;;;1.40;;
80119;SDS011;69425;55.040;82.918;2023-09-07T11:22:38;4.05;;;1.17;;
80119;SDS011;69425;55.040;82.918;2023-09-07T11:27:41;2.83;;;1.20;;
80119;SDS011;69425;55.040;82.918;2023-09-07T11:32:42;2.72;;;1.50;;
80119;SDS011;69425;55.040;82.918;2023-09-07T11:37:51;4.22;;;1.17;;
80119;SDS011;69425;55.040;82.918;2023-09-07T11:42:54;1.67;;;1.00;;
80119;SDS011;69425;55.040;82.918;2023-09-07T11:47:55;3.63;;;1.20;;
80119;SDS011;69425;55.040;82.918;2023-09-07T11:52:56;1.60;;;0.98;;
80119;SDS011;69425;55.040;82.918;2023-09-07T11:57:59;4.82;;;1.17;;
80119;SDS011;69425;55.040;82.918;2023-09-07T12:03:01;3.35;;;1.33;;
80119;SDS011;69425;55.040;82.918;2023-09-07T12:08:02;3.17;;;1.17;;
80119;SDS011;69425;55.040;82.918;2023-09-07T12:13:05;2.97;;;1.40;;
80119;SDS011;69425;55.040;82.918;2023-09-07T12:18:06;7.80;;;1.60;;
80119;SDS011;69425;55.040;82.918;2023-09-07T12:23:08;2.90;;;1.20;;
80119;SDS011;69425;55.040;82.918;2023-09-07T12:28:10;4.32;;;1.42;;
80119;SDS011;69425;55.040;82.918;2023-09-07T12:33:11;2.42;;;1.45;;
80119;SDS011;69425;55.040;82.918;2023-09-07T12:38:13;4.22;;;1.30;;
80119;SDS011;69425;55.040;82.918;2023-09-07T12:43:15;4.82;;;1.90;;
80119;SDS011;69425;55.040;82.918;2023-09-07T12:48:17;4.63;;;1.83;;
80119;SDS011;69425;55.040;82.918;2023-09-07T12:53:18;6.68;;;1.75;;
80119;SDS011;69425;55.040;82.918;2023-09-07T12:58:23;3.90;;;1.73;;
80119;SDS011;69425;55.040;82.918;2023-09-07T13:03:24;4.95;;;1.73;;
80119;SDS011;69425;55.040;82.918;2023-09-07T13:08:25;3.50;;;1.45;;
80119;SDS011;69425;55.040;82.918;2023-09-07T13:13:28;5.57;;;2.15;;
80119;SDS011;69425;55.040;82.918;2023-09-07T13:18:29;7.07;;;2.08;;
80119;SDS011;69425;55.040;82.918;2023-09-07T13:23:30;8.95;;;2.20;;
80119;SDS011;69425;55.040;82.918;2023-09-07T13:28:33;4.65;;;2.10;;
80119;SDS011;69425;55.040;82.918;2023-09-07T13:33:34;8.75;;;2.40;;
80119;SDS011;69425;55.040;82.918;2023-09-07T13:43:38;4.78;;;1.98;;
80119;SDS011;69425;55.040;82.918;2023-09-07T13:48:39;8.15;;;2.72;;
80119;SDS011;69425;55.040;82.918;2023-09-07T13:58:42;4.38;;;1.70;;
80119;SDS011;69425;55.040;82.918;2023-09-07T14:03:43;5.72;;;2.05;;
80119;SDS011;69425;55.040;82.918;2023-09-07T14:08:45;5.70;;;2.47;;
80119;SDS011;69425;55.040;82.918;2023-09-07T14:13:48;5.15;;;2.10;;
80119;SDS011;69425;55.040;82.918;2023-09-07T14:18:49;5.53;;;2.65;;
80119;SDS011;69425;55.040;82.918;2023-09-07T14:28:53;6.72;;;2.17;;
80119;SDS011;69425;55.040;82.918;2023-09-07T14:33:54;5.32;;;2.17;;
80119;SDS011;69425;55.040;82.918;2023-09-07T14:43:57;5.22;;;2.00;;
80119;SDS011;69425;55.040;82.918;2023-09-07T14:48:58;6.70;;;2.45;;
80119;SDS011;69425;55.040;82.918;2023-09-07T14:54:00;7.25;;;2.53;;
80119;SDS011;69425;55.040;82.918;2023-09-07T15:04:03;6.65;;;2.42;;
80119;SDS011;69425;55.040;82.918;2023-09-07T15:09:06;7.50;;;2.65;;
80119;SDS011;69425;55.040;82.918;2023-09-07T15:19:10;4.75;;;2.30;;
80119;SDS011;69425;55.040;82.918;2023-09-07T15:24:11;4.78;;;2.33;;
80119;SDS011;69425;55.040;82.918;2023-09-07T15:34:14;6.25;;;2.35;;
80119;SDS011;69425;55.040;82.918;2023-09-07T15:44:18;4.95;;;2.40;;
80119;SDS011;69425;55.040;82.918;2023-09-07T15:49:19;7.00;;;2.10;;
80119;SDS011;69425;55.040;82.918;2023-09-07T15:54:20;7.13;;;2.65;;
80119;SDS011;69425;55.040;82.918;2023-09-07T16:04:24;3.95;;;2.33;;
80119;SDS011;69425;55.040;82.918;2023-09-07T16:09:25;5.90;;;2.08;;
80119;SDS011;69425;55.040;82.918;2023-09-07T16:14:27;5.10;;;1.85;;
80119;SDS011;69425;55.040;82.918;2023-09-07T16:19:29;5.13;;;2.60;;
80119;SDS011;69425;55.040;82.918;2023-09-07T16:24:30;4.90;;;2.10;;
80119;SDS011;69425;55.040;82.918;2023-09-07T16:29:33;8.70;;;1.98;;
80119;SDS011;69425;55.040;82.918;2023-09-07T16:34:34;5.75;;;2.50;;
80119;SDS011;69425;55.040;82.918;2023-09-07T16:39:35;6.30;;;2.83;;
80119;SDS011;69425;55.040;82.918;2023-09-07T16:49:39;4.03;;;2.42;;
80119;SDS011;69425;55.040;82.918;2023-09-07T16:54:40;5.97;;;2.10;;
80119;SDS011;69425;55.040;82.918;2023-09-07T16:59:43;6.45;;;2.50;;
80119;SDS011;69425;55.040;82.918;2023-09-07T17:04:44;5.97;;;2.22;;
80119;SDS011;69425;55.040;82.918;2023-09-07T17:10:04;5.72;;;2.33;;
80119;SDS011;69425;55.040;82.918;2023-09-07T17:15:09;5.18;;;2.33;;
80119;SDS011;69425;55.040;82.918;2023-09-07T17:20:11;7.22;;;2.70;;
80119;SDS011;69425;55.040;82.918;2023-09-07T17:25:12;3.70;;;2.30;;
80119;SDS011;69425;55.040;82.918;2023-09-07T17:30:15;7.15;;;2.38;;
80119;SDS011;69425;55.040;82.918;2023-09-07T17:35:17;4.20;;;1.90;;
80119;SDS011;69425;55.040;82.918;2023-09-07T17:40:18;4.35;;;2.15;;
80119;SDS011;69425;55.040;82.918;2023-09-07T17:45:22;4.63;;;2.35;;
80119;SDS011;69425;55.040;82.918;2023-09-07T17:50:23;6.15;;;2.42;;
80119;SDS011;69425;55.040;82.918;2023-09-07T18:00:27;6.25;;;2.38;;
80119;SDS011;69425;55.040;82.918;2023-09-07T18:05:29;5.20;;;2.53;;
80119;SDS011;69425;55.040;82.918;2023-09-07T18:15:32;5.38;;;2.53;;
80119;SDS011;69425;55.040;82.918;2023-09-07T18:20:33;4.75;;;2.15;;
80119;SDS011;69425;55.040;82.918;2023-09-07T18:25:35;5.57;;;2.00;;
80119;SDS011;69425;55.040;82.918;2023-09-07T18:30:39;4.60;;;2.30;;
80119;SDS011;69425;55.040;82.918;2023-09-07T18:35:40;5.63;;;2.47;;
80119;SDS011;69425;55.040;82.918;2023-09-07T18:40:43;5.63;;;2.38;;
80119;SDS011;69425;55.040;82.918;2023-09-07T18:45:46;5.88;;;2.30;;
80119;SDS011;69425;55.040;82.918;2023-09-07T18:50:47;4.53;;;1.90;;
80119;SDS011;69425;55.040;82.918;2023-09-07T19:00:50;3.65;;;1.80;;
80119;SDS011;69425;55.040;82.918;2023-09-07T19:05:52;3.70;;;1.80;;
80119;SDS011;69425;55.040;82.918;2023-09-07T19:10:53;3.03;;;1.30;;
80119;SDS011;69425;55.040;82.918;2023-09-07T19:20:56;2.30;;;1.30;;
80119;SDS011;69425;55.040;82.918;2023-09-07T19:31:00;4.93;;;1.83;;
80119;SDS011;69425;55.040;82.918;2023-09-07T19:36:01;5.65;;;2.47;;
80119;SDS011;69425;55.040;82.918;2023-09-07T19:41:02;5.10;;;2.50;;
80119;SDS011;69425;55.040;82.918;2023-09-07T19:51:08;5.95;;;2.15;;
80119;SDS011;69425;55.040;82.918;2023-09-07T19:56:10;4.50;;;2.60;;
80119;SDS011;69425;55.040;82.918;2023-09-07T20:01:14;4.95;;;2.47;;
80119;SDS011;69425;55.040;82.918;2023-09-07T20:06:17;4.50;;;2.70;;
80119;SDS011;69425;55.040;82.918;2023-09-07T20:11:19;5.38;;;2.92;;
80119;SDS011;69425;55.040;82.918;2023-09-07T20:21:23;5.38;;;2.13;;
80119;SDS011;69425;55.040;82.918;2023-09-07T20:31:26;4.85;;;2.30;;
80119;SDS011;69425;55.040;82.918;2023-09-07T20:36:27;4.40;;;2.17;;
80119;SDS011;69425;55.040;82.918;2023-09-07T20:46:31;4.30;;;1.75;;
80119;SDS011;69425;55.040;82.918;2023-09-07T20:51:32;4.38;;;2.80;;
80119;SDS011;69425;55.040;82.918;2023-09-07T21:01:35;4.65;;;2.92;;
80119;SDS011;69425;55.040;82.918;2023-09-07T21:06:37;4.45;;;2.17;;
80119;SDS011;69425;55.040;82.918;2023-09-07T21:11:38;4.45;;;2.97;;
80119;SDS011;69425;55.040;82.918;2023-09-07T21:16:41;6.25;;;3.05;;
80119;SDS011;69425;55.040;82.918;2023-09-07T21:21:42;5.03;;;3.25;;
80119;SDS011;69425;55.040;82.918;2023-09-07T21:26:43;4.85;;;2.47;;
80119;SDS011;69425;55.040;82.918;2023-09-07T21:31:46;6.30;;;2.15;;
80119;SDS011;69425;55.040;82.918;2023-09-07T21:36:47;7.05;;;2.47;;
80119;SDS011;69425;55.040;82.918;2023-09-07T21:41:48;3.65;;;2.42;;
80119;SDS011;69425;55.040;82.918;2023-09-07T21:46:52;3.53;;;2.33;;
80119;SDS011;69425;55.040;82.918;2023-09-07T21:51:53;3.90;;;2.25;;
80119;SDS011;69425;55.040;82.918;2023-09-07T21:56:55;4.95;;;2.72;;
80119;SDS011;69425;55.040;82.918;2023-09-07T22:01:57;6.70;;;3.03;;
80119;SDS011;69425;55.040;82.918;2023-09-07T22:06:59;4.93;;;2.75;;
80119;SDS011;69425;55.040;82.918;2023-09-07T22:12:00;5.57;;;2.65;;
80119;SDS011;69425;55.040;82.918;2023-09-07T22:17:03;4.78;;;2.90;;
80119;SDS011;69425;55.040;82.918;2023-09-07T22:22:04;4.15;;;2.55;;
80119;SDS011;69425;55.040;82.918;2023-09-07T22:27:05;6.32;;;2.75;;
80119;SDS011;69425;55.040;82.918;2023-09-07T22:32:08;6.13;;;3.22;;
80119;SDS011;69425;55.040;82.918;2023-09-07T22:37:09;5.55;;;2.67;;
80119;SDS011;69425;55.040;82.918;2023-09-07T22:42:10;4.55;;;2.38;;
80119;SDS011;69425;55.040;82.918;2023-09-07T22:47:13;5.75;;;2.55;;
80119;SDS011;69425;55.040;82.918;2023-09-07T22:52:14;6.15;;;2.53;;
80119;SDS011;69425;55.040;82.918;2023-09-07T22:57:15;4.68;;;2.20;;
80119;SDS011;69425;55.040;82.918;2023-09-07T23:02:18;6.03;;;2.70;;
80119;SDS011;69425;55.040;82.918;2023-09-07T23:07:19;5.40;;;3.00;;
80119;SDS011;69425;55.040;82.918;2023-09-07T23:17:23;5.30;;;2.38;;
80119;SDS011;69425;55.040;82.918;2023-09-07T23:22:24;5.35;;;2.45;;
80119;SDS011;69425;55.040;82.918;2023-09-07T23:32:28;3.95;;;2.17;;
80119;SDS011;69425;55.040;82.918;2023-09-07T23:37:29;5.00;;;2.70;;
80119;SDS011;69425;55.040;82.918;2023-09-07T23:42:30;6.25;;;2.65;;
80119;SDS011;69425;55.040;82.918;2023-09-07T23:47:33;5.43;;;2.45;;
80119;SDS011;69425;55.040;82.918;2023-09-07T23:52:34;6.78;;;2.78;;
80119;SDS011;69425;55.040;82.918;2023-09-07T23:57:35;5.60;;;2.88;;
